createdAt,value
2022-09-11T00:00:31.078Z,93692.16
2022-09-11T00:03:35.831Z,93699.19
2022-09-11T00:06:40.886Z,93693.59
2022-09-11T00:09:44.552Z,93694.53
2022-09-11T00:12:49.160Z,93694.72
2022-09-11T00:15:53.250Z,93688.59
2022-09-11T00:19:00.413Z,93690.50
2022-09-11T00:22:04.241Z,93699.19
2022-09-11T00:25:08.236Z,93697.38
2022-09-11T00:28:16.831Z,93689.16
2022-09-11T00:31:25.654Z,93700.09
2022-09-11T00:34:29.669Z,93696.19
2022-09-11T00:37:33.474Z,93700.19
2022-09-11T00:40:47.686Z,93697.88
2022-09-11T00:44:04.028Z,93710.09
2022-09-11T00:47:12.602Z,93711.09
2022-09-11T00:50:20.660Z,93708.38
2022-09-11T00:53:27.814Z,93703.78
2022-09-11T00:56:36.440Z,93709.34
2022-09-11T00:59:44.216Z,93704.97
2022-09-11T01:02:50.104Z,93707.28
2022-09-11T01:05:55.568Z,93709.38
2022-09-11T01:08:59.876Z,93712.56
2022-09-11T01:12:30.616Z,93714.59
2022-09-11T01:15:38.728Z,93713.69
2022-09-11T01:18:54.640Z,93717.03
2022-09-11T01:22:04.575Z,93719.47
2022-09-11T01:25:18.257Z,93719.88
2022-09-11T01:28:30.763Z,93705.16
2022-09-11T01:31:53.792Z,93709.34
2022-09-11T01:35:12.533Z,93705.38
2022-09-11T01:38:24.978Z,93713.47
2022-09-11T01:41:35.211Z,93708.66
2022-09-11T01:44:59.668Z,93706.06
2022-09-11T01:48:03.592Z,93710.13
2022-09-11T01:51:10.585Z,93697.66
2022-09-11T01:54:18.930Z,93699.19
2022-09-11T01:57:33.440Z,93705.09
2022-09-11T02:00:40.027Z,93704.88
2022-09-11T02:03:49.594Z,93700.91
2022-09-11T02:07:05.566Z,93700.44
2022-09-11T02:10:20.979Z,93696.25
2022-09-11T02:13:31.454Z,93699.41
2022-09-11T02:17:04.666Z,93698.28
2022-09-11T02:20:10.107Z,93703.50
2022-09-11T02:23:13.791Z,93695.56
2022-09-11T02:26:19.901Z,93687.19
2022-09-11T02:29:25.284Z,93689.03
2022-09-11T02:32:29.797Z,93685.22
2022-09-11T02:35:46.338Z,93686.66
2022-09-11T02:39:07.736Z,93682.06
2022-09-11T02:42:26.695Z,93675.59
2022-09-11T02:46:02.476Z,93681.94
2022-09-11T02:49:09.967Z,93672.69
2022-09-11T02:52:41.123Z,93669.47
2022-09-11T02:56:05.657Z,93666.72
2022-09-11T02:59:24.944Z,93659.28
2022-09-11T03:02:31.099Z,93648.38
2022-09-11T03:05:38.123Z,93650.50
2022-09-11T03:08:41.571Z,93648.63
2022-09-11T03:11:46.517Z,93636.91
2022-09-11T03:14:50.161Z,93635.34
2022-09-11T03:17:54.740Z,93631.75
2022-09-11T03:20:59.066Z,93628.84
2022-09-11T03:24:04.648Z,93617.66
2022-09-11T03:27:11.220Z,93617.50
2022-09-11T03:30:17.077Z,93616.25
2022-09-11T03:33:24.718Z,93610.38
2022-09-11T03:36:29.201Z,93618.16
2022-09-11T03:39:33.001Z,93606.88
2022-09-11T03:42:36.939Z,93595.25
2022-09-11T03:45:40.304Z,93592.94
2022-09-11T03:48:48.672Z,93592.53
2022-09-11T03:51:55.659Z,93591.75
2022-09-11T03:55:01.147Z,93587.22
2022-09-11T03:58:05.379Z,93582.00
2022-09-11T04:01:14.960Z,93576.03
2022-09-11T04:04:19.593Z,93567.78
2022-09-11T04:07:23.786Z,93566.03
2022-09-11T04:10:27.212Z,93567.25
2022-09-11T04:13:34.076Z,93559.50
2022-09-11T04:16:39.620Z,93561.81
2022-09-11T04:19:43.313Z,93547.13
2022-09-11T04:22:47.354Z,93555.56
2022-09-11T04:25:50.466Z,93546.47
2022-09-11T04:28:53.659Z,93536.50
2022-09-11T04:31:58.345Z,93537.88
2022-09-11T04:35:06.734Z,93539.88
2022-09-11T04:38:15.861Z,93529.16
2022-09-11T04:41:19.874Z,93533.56
2022-09-11T04:44:25.579Z,93532.09
2022-09-11T04:47:30.999Z,93522.53
2022-09-11T04:50:34.020Z,93517.97
2022-09-11T04:53:53.893Z,93523.41
2022-09-11T04:56:58.495Z,93517.53
2022-09-11T05:00:03.292Z,93511.78
2022-09-11T05:03:07.754Z,93502.47
2022-09-11T05:06:12.805Z,93500.41
2022-09-11T05:09:18.801Z,93508.41
2022-09-11T05:12:24.102Z,93495.28
2022-09-11T05:15:27.901Z,93493.66
2022-09-11T05:18:31.854Z,93488.41
2022-09-11T05:21:38.303Z,93488.47
2022-09-11T05:24:42.295Z,93488.28
2022-09-11T05:27:46.082Z,93478.41
2022-09-11T05:30:49.923Z,93469.41
2022-09-11T05:33:56.784Z,93472.06
2022-09-11T05:37:00.423Z,93468.84
2022-09-11T05:40:08.113Z,93462.34
2022-09-11T05:43:11.525Z,93466.44
2022-09-11T05:46:17.378Z,93470.91
2022-09-11T05:49:24.334Z,93468.88
2022-09-11T05:52:30.827Z,93464.63
2022-09-11T05:55:36.029Z,93460.72
2022-09-11T05:58:40.082Z,93461.75
2022-09-11T06:01:44.496Z,93460.63
2022-09-11T06:04:57.612Z,93468.69
2022-09-11T06:08:02.035Z,93460.59
2022-09-11T06:11:08.208Z,93454.56
2022-09-11T06:14:14.194Z,93453.53
2022-09-11T06:17:20.021Z,93447.38
2022-09-11T06:20:23.909Z,93441.56
2022-09-11T06:23:29.413Z,93441.13
2022-09-11T06:26:35.936Z,93440.00
2022-09-11T06:29:39.803Z,93438.50
2022-09-11T06:32:43.594Z,93425.91
2022-09-11T06:36:00.429Z,93432.84
2022-09-11T06:39:05.345Z,93426.63
2022-09-11T06:42:11.232Z,93432.56
2022-09-11T06:45:14.733Z,93435.88
2022-09-11T06:48:19.706Z,93420.78
2022-09-11T06:51:24.527Z,93414.56
2022-09-11T06:54:28.820Z,93401.44
2022-09-11T06:57:36.812Z,93405.00
2022-09-11T07:00:42.277Z,93394.75
2022-09-11T07:03:53.870Z,93391.91
2022-09-11T07:06:58.066Z,93401.63
2022-09-11T07:10:05.865Z,93384.25
2022-09-11T07:13:09.437Z,93393.81
2022-09-11T07:16:15.697Z,93401.63
2022-09-11T07:19:26.427Z,93386.16
2022-09-11T07:22:32.069Z,93382.84
2022-09-11T07:25:41.380Z,93381.69
2022-09-11T07:28:45.118Z,93380.13
2022-09-11T07:31:49.452Z,93383.72
2022-09-11T07:34:53.101Z,93379.97
2022-09-11T07:37:56.905Z,93376.41
2022-09-11T07:41:03.219Z,93388.22
2022-09-11T07:44:07.674Z,93369.09
2022-09-11T07:47:11.337Z,93378.53
2022-09-11T07:50:19.777Z,93383.69
2022-09-11T07:53:23.455Z,93375.03
2022-09-11T07:56:28.180Z,93373.25
2022-09-11T07:59:32.381Z,93374.88
2022-09-11T08:02:38.349Z,93376.41
2022-09-11T08:05:41.922Z,93378.69
2022-09-11T08:08:49.500Z,93368.25
2022-09-11T08:11:56.746Z,93369.91
2022-09-11T08:15:00.955Z,93361.91
2022-09-11T08:18:05.867Z,93364.25
2022-09-11T08:21:13.005Z,93362.41
2022-09-11T08:24:18.406Z,93356.25
2022-09-11T08:27:22.958Z,93360.03
2022-09-11T08:30:27.329Z,93365.22
2022-09-11T08:33:30.956Z,93362.38
2022-09-11T08:36:36.040Z,93361.66
2022-09-11T08:39:40.322Z,93360.94
2022-09-11T08:42:47.169Z,93360.34
2022-09-11T08:45:55.438Z,93365.78
2022-09-11T08:49:27.355Z,93358.03
2022-09-11T08:52:33.497Z,93348.28
2022-09-11T08:55:41.310Z,93359.00
2022-09-11T08:59:17.920Z,93349.34
2022-09-11T09:02:30.119Z,93352.47
2022-09-11T09:05:56.986Z,93349.47
2022-09-11T09:09:35.138Z,93355.75
2022-09-11T09:12:51.615Z,93348.41
2022-09-11T09:16:21.662Z,93357.50
2022-09-11T09:19:39.349Z,93361.88
2022-09-11T09:22:49.572Z,93360.81
2022-09-11T09:25:56.521Z,93356.91
2022-09-11T09:29:04.110Z,93358.94
2022-09-11T09:32:24.637Z,93358.16
2022-09-11T09:35:44.210Z,93358.44
2022-09-11T09:38:54.410Z,93365.94
2022-09-11T09:42:13.173Z,93364.84
2022-09-11T09:45:32.824Z,93372.44
2022-09-11T09:48:40.188Z,93377.69
2022-09-11T09:51:44.282Z,93374.38
2022-09-11T09:55:02.267Z,93382.22
2022-09-11T09:58:05.333Z,93375.06
2022-09-11T10:01:48.741Z,93382.50
2022-09-11T10:05:17.720Z,93378.81
2022-09-11T10:08:38.090Z,93382.47
2022-09-11T10:11:42.531Z,93377.78
2022-09-11T10:14:55.157Z,93383.56
2022-09-11T10:18:33.127Z,93387.28
2022-09-11T10:21:38.402Z,93377.66
2022-09-11T10:24:43.642Z,93381.94
2022-09-11T10:27:53.318Z,93388.69
2022-09-11T10:31:04.875Z,93396.59
2022-09-11T10:34:16.696Z,93389.84
2022-09-11T10:37:30.310Z,93390.41
2022-09-11T10:40:33.707Z,93389.06
2022-09-11T10:44:02.086Z,93389.97
2022-09-11T10:47:16.192Z,93386.81
2022-09-11T10:50:19.223Z,93389.31
2022-09-11T10:53:26.708Z,93397.59
2022-09-11T10:56:31.315Z,93391.31
2022-09-11T10:59:59.287Z,93399.88
2022-09-11T11:03:21.943Z,93396.44
2022-09-11T11:06:45.015Z,93394.94
2022-09-11T11:10:14.489Z,93388.38
2022-09-11T11:13:39.159Z,93387.88
2022-09-11T11:16:55.613Z,93392.00
2022-09-11T11:20:12.284Z,93390.31
2022-09-11T11:23:34.529Z,93390.72
2022-09-11T11:26:53.494Z,93398.84
2022-09-11T11:30:01.162Z,93399.00
2022-09-11T11:33:43.285Z,93399.09
2022-09-11T11:37:05.872Z,93413.56
2022-09-11T11:40:32.978Z,93407.78
2022-09-11T11:43:42.557Z,93410.06
2022-09-11T11:46:50.431Z,93409.00
2022-09-11T11:50:09.465Z,93419.97
2022-09-11T11:53:41.649Z,93425.47
2022-09-11T11:56:58.156Z,93417.50
2022-09-11T12:00:12.039Z,93427.94
2022-09-11T12:03:34.788Z,93438.25
2022-09-11T12:06:38.375Z,93441.25
2022-09-11T12:09:50.235Z,93449.41
2022-09-11T12:12:57.575Z,93446.78
2022-09-11T12:16:19.624Z,93452.31
2022-09-11T12:19:26.294Z,93451.09
2022-09-11T12:22:38.343Z,93444.97
2022-09-11T12:25:51.768Z,93446.38
2022-09-11T12:29:14.595Z,93454.63
2022-09-11T12:32:20.026Z,93454.78
2022-09-11T12:35:32.590Z,93456.88
2022-09-11T12:38:48.978Z,93467.72
2022-09-11T12:41:52.720Z,93464.41
2022-09-11T12:45:05.196Z,93468.53
2022-09-11T12:48:18.129Z,93467.25
2022-09-11T12:51:27.939Z,93471.34
2022-09-11T12:54:39.629Z,93476.81
2022-09-11T12:57:43.736Z,93476.22
2022-09-11T13:00:51.474Z,93474.88
2022-09-11T13:04:00.401Z,93480.97
2022-09-11T13:07:06.456Z,93474.94
2022-09-11T13:10:25.024Z,93466.88
2022-09-11T13:13:38.069Z,93471.66
2022-09-11T13:16:45.536Z,93475.72
2022-09-11T13:19:49.289Z,93471.13
2022-09-11T13:22:58.190Z,93477.84
2022-09-11T13:26:06.075Z,93472.47
2022-09-11T13:29:14.972Z,93472.53
2022-09-11T13:32:19.533Z,93469.88
2022-09-11T13:35:27.530Z,93475.28
2022-09-11T13:38:35.174Z,93475.31
2022-09-11T13:41:44.943Z,93475.34
2022-09-11T13:44:53.191Z,93476.69
2022-09-11T13:47:58.451Z,93477.44
2022-09-11T13:51:01.597Z,93475.44
2022-09-11T13:54:13.492Z,93482.22
2022-09-11T13:57:20.916Z,93475.50
2022-09-11T14:00:41.053Z,93477.53
2022-09-11T14:03:48.779Z,93478.91
2022-09-11T14:06:51.873Z,93478.94
2022-09-11T14:10:05.081Z,93482.31
2022-09-11T14:13:20.372Z,93481.63
2022-09-11T14:16:40.852Z,93473.56
2022-09-11T14:19:46.959Z,93477.63
2022-09-11T14:22:54.811Z,93476.94
2022-09-11T14:26:16.497Z,93473.59
2022-09-11T14:29:33.831Z,93478.97
2022-09-11T14:32:39.621Z,93477.63
2022-09-11T14:35:46.396Z,93484.38
2022-09-11T14:38:49.760Z,93491.09
2022-09-11T14:41:56.085Z,93473.59
2022-09-11T14:44:59.717Z,93490.41
2022-09-11T14:48:04.135Z,93487.69
2022-09-11T14:51:12.762Z,93496.47
2022-09-11T14:54:18.119Z,93490.41
2022-09-11T14:57:24.649Z,93491.06
2022-09-11T15:00:28.804Z,93499.16
2022-09-11T15:03:32.539Z,93496.44
2022-09-11T15:06:36.956Z,93498.47
2022-09-11T15:09:41.180Z,93505.84
2022-09-11T15:12:45.474Z,93503.16
2022-09-11T15:15:52.424Z,93498.41
2022-09-11T15:18:56.155Z,93496.38
2022-09-11T15:21:59.836Z,93504.47
2022-09-11T15:25:04.440Z,93509.16
2022-09-11T15:28:10.558Z,93511.16
2022-09-11T15:31:16.626Z,93505.09
2022-09-11T15:34:22.167Z,93519.88
2022-09-11T15:37:26.463Z,93533.28
2022-09-11T15:40:30.165Z,93534.50
2022-09-11T15:43:39.353Z,93535.84
2022-09-11T15:46:43.722Z,93544.41
2022-09-11T15:49:48.388Z,93544.13
2022-09-11T15:52:51.530Z,93535.75
2022-09-11T15:56:12.808Z,93544.41
2022-09-11T15:59:16.795Z,93540.91
2022-09-11T16:02:22.494Z,93545.63
2022-09-11T16:05:26.199Z,93550.91
2022-09-11T16:08:30.216Z,93549.59
2022-09-11T16:11:34.618Z,93557.78
2022-09-11T16:14:39.386Z,93560.56
2022-09-11T16:17:43.088Z,93559.34
2022-09-11T16:20:58.819Z,93553.97
2022-09-11T16:24:07.289Z,93560.78
2022-09-11T16:27:11.528Z,93558.13
2022-09-11T16:30:41.555Z,93560.81
2022-09-11T16:33:44.819Z,93568.91
2022-09-11T16:36:48.571Z,93570.78
2022-09-11T16:39:53.007Z,93575.47
2022-09-11T16:42:56.693Z,93574.78
2022-09-11T16:46:00.743Z,93577.41
2022-09-11T16:49:06.384Z,93577.34
2022-09-11T16:52:12.030Z,93575.88
2022-09-11T16:55:16.163Z,93581.25
2022-09-11T16:58:20.886Z,93583.94
2022-09-11T17:01:27.540Z,93579.91
2022-09-11T17:04:32.060Z,93583.22
2022-09-11T17:07:36.457Z,93583.19
2022-09-11T17:10:47.067Z,93588.47
2022-09-11T17:13:51.051Z,93591.81
2022-09-11T17:16:55.059Z,93585.75
2022-09-11T17:19:59.859Z,93586.41
2022-09-11T17:23:04.079Z,93587.78
2022-09-11T17:26:09.571Z,93597.94
2022-09-11T17:29:14.028Z,93588.47
2022-09-11T17:32:28.349Z,93593.78
2022-09-11T17:35:33.238Z,93595.78
2022-09-11T17:38:37.815Z,93600.38
2022-09-11T17:41:41.815Z,93609.50
2022-09-11T17:44:45.419Z,93615.78
2022-09-11T17:47:49.134Z,93613.94
2022-09-11T17:51:01.649Z,93620.50
2022-09-11T17:54:05.713Z,93616.31
2022-09-11T17:57:09.625Z,93623.66
2022-09-11T18:00:14.234Z,93629.00
2022-09-11T18:03:23.297Z,93623.72
2022-09-11T18:06:34.948Z,93617.09
2022-09-11T18:09:38.335Z,93619.19
2022-09-11T18:12:41.486Z,93617.97
2022-09-11T18:15:44.493Z,93624.69
2022-09-11T18:18:49.379Z,93625.81
2022-09-11T18:21:53.694Z,93622.72
2022-09-11T18:24:56.954Z,93619.81
2022-09-11T18:28:00.292Z,93632.47
2022-09-11T18:31:06.107Z,93626.34
2022-09-11T18:34:15.886Z,93628.31
2022-09-11T18:37:20.625Z,93633.44
2022-09-11T18:40:23.652Z,93642.59
2022-09-11T18:43:28.974Z,93643.44
2022-09-11T18:46:33.242Z,93648.69
2022-09-11T18:49:36.924Z,93651.81
2022-09-11T18:52:41.683Z,93657.19
2022-09-11T18:55:46.179Z,93657.00
2022-09-11T18:58:51.101Z,93658.78
2022-09-11T19:01:55.923Z,93658.72
2022-09-11T19:05:00.206Z,93652.59
2022-09-11T19:08:04.822Z,93653.38
2022-09-11T19:11:10.451Z,93653.25
2022-09-11T19:14:14.241Z,93653.00
2022-09-11T19:17:19.153Z,93663.09
2022-09-11T19:20:23.369Z,93662.94
2022-09-11T19:23:38.511Z,93665.47
2022-09-11T19:26:44.475Z,93665.50
2022-09-11T19:29:48.051Z,93674.50
2022-09-11T19:32:52.035Z,93680.81
2022-09-11T19:36:04.186Z,93685.84
2022-09-11T19:39:08.477Z,93681.53
2022-09-11T19:42:11.486Z,93666.81
2022-09-11T19:45:15.872Z,93674.13
2022-09-11T19:48:19.288Z,93682.00
2022-09-11T19:51:31.866Z,93679.50
2022-09-11T19:54:35.955Z,93665.25
2022-09-11T19:57:40.052Z,93669.00
2022-09-11T20:00:43.209Z,93670.13
2022-09-11T20:03:48.408Z,93664.50
2022-09-11T20:09:53.535Z,93666.94
2022-09-11T20:12:57.170Z,93674.13
2022-09-11T20:16:08.823Z,93675.16
2022-09-11T20:19:12.872Z,93672.28
2022-09-11T20:22:16.844Z,93676.22
2022-09-11T20:25:20.590Z,93683.28
2022-09-11T20:28:25.258Z,93676.63
2022-09-11T20:31:32.170Z,93669.78
2022-09-11T20:34:36.291Z,93666.22
2022-09-11T20:37:39.877Z,93667.59
2022-09-11T20:40:46.300Z,93663.75
2022-09-11T20:43:50.673Z,93666.31
2022-09-11T20:46:54.636Z,93662.75
2022-09-11T20:50:00.502Z,93664.59
2022-09-11T20:53:04.512Z,93669.19
2022-09-11T20:56:12.039Z,93669.19
2022-09-11T20:59:15.705Z,93676.91
2022-09-11T21:02:20.157Z,93670.56
2022-09-11T21:05:23.832Z,93669.34
2022-09-11T21:08:28.019Z,93680.06
2022-09-11T21:11:31.899Z,93679.44
2022-09-11T21:14:35.617Z,93681.41
2022-09-11T21:17:39.306Z,93690.00
2022-09-11T21:20:42.867Z,93692.19
2022-09-11T21:23:46.753Z,93692.44
2022-09-11T21:26:50.646Z,93702.47
2022-09-11T21:29:55.799Z,93696.47
2022-09-11T21:32:59.702Z,93693.03
2022-09-11T21:36:04.541Z,93688.94
2022-09-11T21:39:08.302Z,93688.38
2022-09-11T21:42:12.106Z,93697.28
2022-09-11T21:45:16.294Z,93700.31
2022-09-11T21:48:20.363Z,93703.47
2022-09-11T21:51:24.361Z,93706.81
2022-09-11T21:54:31.795Z,93713.13
2022-09-11T21:57:35.808Z,93712.03
2022-09-11T22:00:43.028Z,93707.28
2022-09-11T22:03:47.383Z,93722.47
2022-09-11T22:06:51.216Z,93711.41
2022-09-11T22:09:54.967Z,93717.44
2022-09-11T22:12:58.678Z,93717.25
2022-09-11T22:16:06.787Z,93714.41
2022-09-11T22:19:10.375Z,93716.09
2022-09-11T22:22:15.886Z,93719.94
2022-09-11T22:25:19.567Z,93716.63
2022-09-11T22:28:23.611Z,93713.66
2022-09-11T22:31:29.383Z,93718.06
2022-09-11T22:34:37.475Z,93713.44
2022-09-11T22:37:41.374Z,93716.78
2022-09-11T22:40:45.320Z,93726.88
2022-09-11T22:43:50.615Z,93722.88
2022-09-11T22:46:54.177Z,93729.50
2022-09-11T22:49:58.240Z,93726.63
2022-09-11T22:53:01.816Z,93733.94
2022-09-11T22:56:05.859Z,93736.31
2022-09-11T22:59:09.807Z,93735.88
2022-09-11T23:02:14.376Z,93732.03
2022-09-11T23:05:36.384Z,93718.94
2022-09-11T23:08:42.036Z,93721.47
2022-09-11T23:11:46.710Z,93735.91
2022-09-11T23:14:50.611Z,93741.25
2022-09-11T23:17:55.348Z,93752.53
2022-09-11T23:20:59.821Z,93770.03
2022-09-11T23:24:06.830Z,93772.75
2022-09-11T23:27:10.927Z,93748.19
2022-09-11T23:30:14.980Z,93741.81
2022-09-11T23:33:18.764Z,93755.41
2022-09-11T23:36:23.798Z,93750.56
2022-09-11T23:39:27.829Z,93743.63
2022-09-11T23:42:31.291Z,93749.69
2022-09-11T23:45:35.354Z,93745.97
2022-09-11T23:48:39.675Z,93758.41
2022-09-11T23:51:43.700Z,93764.34
2022-09-11T23:54:46.934Z,93757.97
2022-09-11T23:57:54.338Z,93765.09
